Grayson Valley, Alabama
Current Conditions -  °F | °C
As of 6:53 AM on Sunday 21 Dec 2014 (Local Time) from KBHM Reporting Station
Overcast Overcast  
Wind Chill: 40°   Ceiling: 800
Heat Index: 43°   Visibility: 7mi
Dew Point: 40°   Wind: 5mph
Humidity: 89%   Direction: 30°NNE
Pressure: 30.19"   Gusts: NA
Location:  33.6283°N, 86.6434°W
Report Text: KBHM 211253Z 03004KT 7SM OVC008 06/04 A3019 RMK AO2 SLP226 T00610044
Loading
Personal Weather Stations






























Interactive Weather Map New forecast layout! Learn more

10-Day Weather Forecast

Advertisements
Track Severe Weather on mobile